sensor_id;sensor_type;location;lat;lon;timestamp;P1;durP1;ratioP1;P2;durP2;ratioP2
69714;SDS011;56981;53.532;49.398;2023-11-19T00:00:34;4.72;;;1.83;;
69714;SDS011;56981;53.532;49.398;2023-11-19T00:03:01;5.43;;;1.40;;
69714;SDS011;56981;53.532;49.398;2023-11-19T00:05:27;5.97;;;1.75;;
69714;SDS011;56981;53.532;49.398;2023-11-19T00:07:53;2.25;;;1.80;;
69714;SDS011;56981;53.532;49.398;2023-11-19T00:10:19;1.20;;;1.10;;
69714;SDS011;56981;53.532;49.398;2023-11-19T00:12:46;3.15;;;1.73;;
69714;SDS011;56981;53.532;49.398;2023-11-19T00:15:14;3.33;;;1.45;;
69714;SDS011;56981;53.532;49.398;2023-11-19T00:17:46;4.80;;;1.77;;
69714;SDS011;56981;53.532;49.398;2023-11-19T00:20:14;2.50;;;1.70;;
69714;SDS011;56981;53.532;49.398;2023-11-19T00:22:41;3.47;;;1.38;;
69714;SDS011;56981;53.532;49.398;2023-11-19T00:25:08;1.95;;;1.67;;
69714;SDS011;56981;53.532;49.398;2023-11-19T00:27:35;3.42;;;1.38;;
69714;SDS011;56981;53.532;49.398;2023-11-19T00:30:03;2.58;;;1.63;;
69714;SDS011;56981;53.532;49.398;2023-11-19T00:32:31;5.18;;;1.85;;
69714;SDS011;56981;53.532;49.398;2023-11-19T00:34:58;2.00;;;1.55;;
69714;SDS011;56981;53.532;49.398;2023-11-19T00:37:24;4.60;;;1.80;;
69714;SDS011;56981;53.532;49.398;2023-11-19T00:39:50;2.70;;;1.85;;
69714;SDS011;56981;53.532;49.398;2023-11-19T00:42:17;3.92;;;1.52;;
69714;SDS011;56981;53.532;49.398;2023-11-19T00:44:43;10.75;;;1.95;;
69714;SDS011;56981;53.532;49.398;2023-11-19T00:47:09;2.28;;;1.35;;
69714;SDS011;56981;53.532;49.398;2023-11-19T00:49:36;1.90;;;1.38;;
69714;SDS011;56981;53.532;49.398;2023-11-19T00:52:02;2.47;;;1.25;;
69714;SDS011;56981;53.532;49.398;2023-11-19T00:54:28;3.25;;;1.38;;
69714;SDS011;56981;53.532;49.398;2023-11-19T00:56:54;3.75;;;1.15;;
69714;SDS011;56981;53.532;49.398;2023-11-19T00:59:20;3.15;;;1.60;;
69714;SDS011;56981;53.532;49.398;2023-11-19T01:01:47;2.13;;;1.15;;
69714;SDS011;56981;53.532;49.398;2023-11-19T01:04:16;1.50;;;0.90;;
69714;SDS011;56981;53.532;49.398;2023-11-19T01:06:42;6.22;;;1.63;;
69714;SDS011;56981;53.532;49.398;2023-11-19T01:09:08;3.10;;;1.27;;
69714;SDS011;56981;53.532;49.398;2023-11-19T01:11:35;3.17;;;2.28;;
69714;SDS011;56981;53.532;49.398;2023-11-19T01:14:01;2.50;;;1.10;;
69714;SDS011;56981;53.532;49.398;2023-11-19T01:16:27;6.32;;;1.70;;
69714;SDS011;56981;53.532;49.398;2023-11-19T01:18:53;2.00;;;1.42;;
69714;SDS011;56981;53.532;49.398;2023-11-19T01:21:19;1.55;;;1.20;;
69714;SDS011;56981;53.532;49.398;2023-11-19T01:23:45;1.73;;;1.30;;
69714;SDS011;56981;53.532;49.398;2023-11-19T01:26:12;2.00;;;1.40;;
69714;SDS011;56981;53.532;49.398;2023-11-19T01:28:38;8.25;;;1.95;;
69714;SDS011;56981;53.532;49.398;2023-11-19T01:31:05;3.78;;;1.25;;
69714;SDS011;56981;53.532;49.398;2023-11-19T01:33:35;1.77;;;1.17;;
69714;SDS011;56981;53.532;49.398;2023-11-19T01:36:02;2.85;;;1.70;;
69714;SDS011;56981;53.532;49.398;2023-11-19T01:38:29;2.10;;;1.38;;
69714;SDS011;56981;53.532;49.398;2023-11-19T01:40:56;2.88;;;1.42;;
69714;SDS011;56981;53.532;49.398;2023-11-19T01:45:58;5.47;;;2.03;;
69714;SDS011;56981;53.532;49.398;2023-11-19T01:48:25;5.43;;;1.00;;
69714;SDS011;56981;53.532;49.398;2023-11-19T01:50:51;3.53;;;1.17;;
69714;SDS011;56981;53.532;49.398;2023-11-19T01:53:19;3.25;;;1.92;;
69714;SDS011;56981;53.532;49.398;2023-11-19T01:55:46;4.53;;;1.23;;
69714;SDS011;56981;53.532;49.398;2023-11-19T01:58:13;10.82;;;2.10;;
69714;SDS011;56981;53.532;49.398;2023-11-19T02:00:40;8.25;;;2.00;;
69714;SDS011;56981;53.532;49.398;2023-11-19T02:03:06;5.20;;;1.65;;
69714;SDS011;56981;53.532;49.398;2023-11-19T02:05:35;2.70;;;1.40;;
69714;SDS011;56981;53.532;49.398;2023-11-19T02:08:07;3.92;;;1.52;;
69714;SDS011;56981;53.532;49.398;2023-11-19T02:10:33;8.15;;;1.55;;
69714;SDS011;56981;53.532;49.398;2023-11-19T02:13:00;13.43;;;2.63;;
69714;SDS011;56981;53.532;49.398;2023-11-19T02:15:26;1.70;;;1.52;;
69714;SDS011;56981;53.532;49.398;2023-11-19T02:17:53;2.22;;;0.95;;
69714;SDS011;56981;53.532;49.398;2023-11-19T02:20:20;10.23;;;2.38;;
69714;SDS011;56981;53.532;49.398;2023-11-19T02:22:49;2.67;;;1.90;;
69714;SDS011;56981;53.532;49.398;2023-11-19T02:25:20;10.65;;;2.08;;
69714;SDS011;56981;53.532;49.398;2023-11-19T02:30:25;3.22;;;1.35;;
69714;SDS011;56981;53.532;49.398;2023-11-19T02:32:55;2.08;;;1.48;;
69714;SDS011;56981;53.532;49.398;2023-11-19T02:35:26;2.35;;;1.38;;
69714;SDS011;56981;53.532;49.398;2023-11-19T02:37:54;2.58;;;1.58;;
69714;SDS011;56981;53.532;49.398;2023-11-19T02:40:20;7.25;;;1.45;;
69714;SDS011;56981;53.532;49.398;2023-11-19T02:42:49;3.55;;;1.48;;
69714;SDS011;56981;53.532;49.398;2023-11-19T02:45:16;4.68;;;1.10;;
69714;SDS011;56981;53.532;49.398;2023-11-19T02:47:43;4.15;;;1.33;;
69714;SDS011;56981;53.532;49.398;2023-11-19T02:50:10;1.67;;;1.00;;
69714;SDS011;56981;53.532;49.398;2023-11-19T02:52:43;2.50;;;1.70;;
69714;SDS011;56981;53.532;49.398;2023-11-19T02:55:11;1.75;;;1.60;;
69714;SDS011;56981;53.532;49.398;2023-11-19T02:57:41;2.40;;;1.42;;
69714;SDS011;56981;53.532;49.398;2023-11-19T03:00:18;4.63;;;1.67;;
69714;SDS011;56981;53.532;49.398;2023-11-19T03:02:49;2.42;;;1.30;;
69714;SDS011;56981;53.532;49.398;2023-11-19T03:05:24;4.95;;;1.25;;
69714;SDS011;56981;53.532;49.398;2023-11-19T03:07:52;1.23;;;1.10;;
69714;SDS011;56981;53.532;49.398;2023-11-19T03:10:18;6.70;;;1.90;;
69714;SDS011;56981;53.532;49.398;2023-11-19T03:12:44;3.03;;;1.08;;
69714;SDS011;56981;53.532;49.398;2023-11-19T03:15:10;3.65;;;1.45;;
69714;SDS011;56981;53.532;49.398;2023-11-19T03:17:40;1.67;;;1.38;;
69714;SDS011;56981;53.532;49.398;2023-11-19T03:20:08;4.47;;;1.42;;
69714;SDS011;56981;53.532;49.398;2023-11-19T03:22:36;5.88;;;1.33;;
69714;SDS011;56981;53.532;49.398;2023-11-19T03:25:03;3.10;;;1.23;;
69714;SDS011;56981;53.532;49.398;2023-11-19T03:27:29;13.77;;;2.85;;
69714;SDS011;56981;53.532;49.398;2023-11-19T03:29:57;2.13;;;1.50;;
69714;SDS011;56981;53.532;49.398;2023-11-19T03:32:23;2.80;;;1.08;;
69714;SDS011;56981;53.532;49.398;2023-11-19T03:34:49;26.00;;;2.22;;
69714;SDS011;56981;53.532;49.398;2023-11-19T03:37:15;1.80;;;1.23;;
69714;SDS011;56981;53.532;49.398;2023-11-19T03:39:42;0.52;;;0.50;;
69714;SDS011;56981;53.532;49.398;2023-11-19T03:42:08;0.70;;;0.70;;
69714;SDS011;56981;53.532;49.398;2023-11-19T03:44:34;3.17;;;1.42;;
69714;SDS011;56981;53.532;49.398;2023-11-19T03:47:01;2.92;;;1.30;;
69714;SDS011;56981;53.532;49.398;2023-11-19T03:49:27;4.55;;;1.63;;
69714;SDS011;56981;53.532;49.398;2023-11-19T03:51:53;3.42;;;1.20;;
69714;SDS011;56981;53.532;49.398;2023-11-19T03:54:19;1.42;;;1.00;;
69714;SDS011;56981;53.532;49.398;2023-11-19T03:56:46;1.23;;;1.02;;
69714;SDS011;56981;53.532;49.398;2023-11-19T03:59:12;2.58;;;1.23;;
69714;SDS011;56981;53.532;49.398;2023-11-19T04:01:38;1.70;;;0.95;;
69714;SDS011;56981;53.532;49.398;2023-11-19T04:04:04;3.17;;;1.73;;
69714;SDS011;56981;53.532;49.398;2023-11-19T04:06:31;7.40;;;2.92;;
69714;SDS011;56981;53.532;49.398;2023-11-19T04:08:57;9.95;;;1.77;;
69714;SDS011;56981;53.532;49.398;2023-11-19T04:11:23;2.75;;;1.20;;
69714;SDS011;56981;53.532;49.398;2023-11-19T04:13:49;8.75;;;1.70;;
69714;SDS011;56981;53.532;49.398;2023-11-19T04:16:15;2.67;;;1.33;;
69714;SDS011;56981;53.532;49.398;2023-11-19T04:18:41;1.70;;;0.82;;
69714;SDS011;56981;53.532;49.398;2023-11-19T04:21:07;4.07;;;1.42;;
69714;SDS011;56981;53.532;49.398;2023-11-19T04:23:33;5.38;;;1.35;;
69714;SDS011;56981;53.532;49.398;2023-11-19T04:26:02;2.47;;;1.35;;
69714;SDS011;56981;53.532;49.398;2023-11-19T04:28:30;3.03;;;1.55;;
69714;SDS011;56981;53.532;49.398;2023-11-19T04:30:56;5.50;;;1.13;;
69714;SDS011;56981;53.532;49.398;2023-11-19T04:33:22;6.50;;;1.75;;
69714;SDS011;56981;53.532;49.398;2023-11-19T04:35:48;2.33;;;1.20;;
69714;SDS011;56981;53.532;49.398;2023-11-19T04:38:14;2.13;;;0.95;;
69714;SDS011;56981;53.532;49.398;2023-11-19T04:40:40;2.47;;;1.20;;
69714;SDS011;56981;53.532;49.398;2023-11-19T04:43:07;4.38;;;2.13;;
69714;SDS011;56981;53.532;49.398;2023-11-19T04:45:33;8.48;;;1.33;;
69714;SDS011;56981;53.532;49.398;2023-11-19T04:48:00;3.60;;;1.80;;
69714;SDS011;56981;53.532;49.398;2023-11-19T04:50:26;2.72;;;1.80;;
69714;SDS011;56981;53.532;49.398;2023-11-19T04:52:52;3.47;;;0.88;;
69714;SDS011;56981;53.532;49.398;2023-11-19T04:55:19;3.28;;;1.48;;
69714;SDS011;56981;53.532;49.398;2023-11-19T04:57:45;2.28;;;1.50;;
69714;SDS011;56981;53.532;49.398;2023-11-19T05:00:12;1.05;;;0.80;;
69714;SDS011;56981;53.532;49.398;2023-11-19T05:02:39;0.60;;;0.57;;
69714;SDS011;56981;53.532;49.398;2023-11-19T05:05:05;2.95;;;0.98;;
69714;SDS011;56981;53.532;49.398;2023-11-19T05:07:31;5.15;;;0.82;;
69714;SDS011;56981;53.532;49.398;2023-11-19T05:09:57;1.05;;;0.80;;
69714;SDS011;56981;53.532;49.398;2023-11-19T05:12:24;1.23;;;0.80;;
69714;SDS011;56981;53.532;49.398;2023-11-19T05:14:50;1.00;;;0.63;;
69714;SDS011;56981;53.532;49.398;2023-11-19T05:17:19;2.13;;;1.00;;
69714;SDS011;56981;53.532;49.398;2023-11-19T05:19:45;0.75;;;0.75;;
69714;SDS011;56981;53.532;49.398;2023-11-19T05:22:11;4.80;;;1.40;;
69714;SDS011;56981;53.532;49.398;2023-11-19T05:24:38;0.68;;;0.68;;
69714;SDS011;56981;53.532;49.398;2023-11-19T05:27:04;1.02;;;0.80;;
69714;SDS011;56981;53.532;49.398;2023-11-19T05:29:32;1.85;;;0.93;;
69714;SDS011;56981;53.532;49.398;2023-11-19T05:31:58;2.88;;;1.13;;
69714;SDS011;56981;53.532;49.398;2023-11-19T05:34:24;2.97;;;1.02;;
69714;SDS011;56981;53.532;49.398;2023-11-19T05:36:50;3.53;;;1.02;;
69714;SDS011;56981;53.532;49.398;2023-11-19T05:39:16;3.25;;;1.33;;
69714;SDS011;56981;53.532;49.398;2023-11-19T05:41:46;1.83;;;0.93;;
69714;SDS011;56981;53.532;49.398;2023-11-19T05:44:12;2.33;;;1.17;;
69714;SDS011;56981;53.532;49.398;2023-11-19T05:46:38;2.05;;;1.23;;
69714;SDS011;56981;53.532;49.398;2023-11-19T05:49:08;5.65;;;1.10;;
69714;SDS011;56981;53.532;49.398;2023-11-19T05:51:38;6.80;;;1.45;;
69714;SDS011;56981;53.532;49.398;2023-11-19T05:54:05;5.28;;;1.73;;
69714;SDS011;56981;53.532;49.398;2023-11-19T05:56:33;1.33;;;0.70;;
69714;SDS011;56981;53.532;49.398;2023-11-19T05:58:59;4.85;;;1.15;;
69714;SDS011;56981;53.532;49.398;2023-11-19T06:01:41;3.38;;;1.13;;
69714;SDS011;56981;53.532;49.398;2023-11-19T06:04:07;2.22;;;1.00;;
69714;SDS011;56981;53.532;49.398;2023-11-19T06:06:33;5.55;;;1.23;;
69714;SDS011;56981;53.532;49.398;2023-11-19T06:09:03;9.55;;;1.95;;
69714;SDS011;56981;53.532;49.398;2023-11-19T06:11:30;1.55;;;1.08;;
69714;SDS011;56981;53.532;49.398;2023-11-19T06:13:56;3.53;;;1.83;;
69714;SDS011;56981;53.532;49.398;2023-11-19T06:16:22;1.90;;;0.95;;
69714;SDS011;56981;53.532;49.398;2023-11-19T06:18:48;2.60;;;1.33;;
69714;SDS011;56981;53.532;49.398;2023-11-19T06:21:14;1.75;;;1.13;;
69714;SDS011;56981;53.532;49.398;2023-11-19T06:23:41;4.82;;;1.60;;
69714;SDS011;56981;53.532;49.398;2023-11-19T06:26:08;4.68;;;1.33;;
69714;SDS011;56981;53.532;49.398;2023-11-19T06:28:36;4.88;;;2.35;;
69714;SDS011;56981;53.532;49.398;2023-11-19T06:31:03;6.03;;;1.67;;
69714;SDS011;56981;53.532;49.398;2023-11-19T06:33:29;2.58;;;1.52;;
69714;SDS011;56981;53.532;49.398;2023-11-19T06:35:55;1.98;;;0.80;;
69714;SDS011;56981;53.532;49.398;2023-11-19T06:38:21;5.00;;;1.83;;
69714;SDS011;56981;53.532;49.398;2023-11-19T06:40:47;1.75;;;1.08;;
69714;SDS011;56981;53.532;49.398;2023-11-19T06:43:14;4.50;;;1.38;;
69714;SDS011;56981;53.532;49.398;2023-11-19T06:45:40;3.63;;;1.20;;
69714;SDS011;56981;53.532;49.398;2023-11-19T06:48:07;2.92;;;0.80;;
69714;SDS011;56981;53.532;49.398;2023-11-19T06:50:33;3.00;;;1.45;;
69714;SDS011;56981;53.532;49.398;2023-11-19T06:52:59;3.38;;;1.02;;
69714;SDS011;56981;53.532;49.398;2023-11-19T06:55:26;3.95;;;1.63;;
69714;SDS011;56981;53.532;49.398;2023-11-19T06:57:52;8.80;;;1.67;;
69714;SDS011;56981;53.532;49.398;2023-11-19T07:00:18;3.63;;;1.95;;
69714;SDS011;56981;53.532;49.398;2023-11-19T07:02:50;5.63;;;1.60;;
69714;SDS011;56981;53.532;49.398;2023-11-19T07:05:16;6.57;;;2.20;;
69714;SDS011;56981;53.532;49.398;2023-11-19T07:07:47;1.27;;;0.85;;
69714;SDS011;56981;53.532;49.398;2023-11-19T07:10:43;9.88;;;2.20;;
69714;SDS011;56981;53.532;49.398;2023-11-19T07:13:09;4.88;;;2.58;;
69714;SDS011;56981;53.532;49.398;2023-11-19T07:15:35;3.38;;;2.58;;
69714;SDS011;56981;53.532;49.398;2023-11-19T07:18:01;6.18;;;2.38;;
69714;SDS011;56981;53.532;49.398;2023-11-19T07:20:27;2.92;;;1.95;;
69714;SDS011;56981;53.532;49.398;2023-11-19T07:22:53;4.93;;;2.25;;
69714;SDS011;56981;53.532;49.398;2023-11-19T07:25:22;7.40;;;2.28;;
69714;SDS011;56981;53.532;49.398;2023-11-19T07:27:49;3.47;;;2.15;;
69714;SDS011;56981;53.532;49.398;2023-11-19T07:30:15;6.13;;;2.75;;
69714;SDS011;56981;53.532;49.398;2023-11-19T07:32:41;3.53;;;1.63;;
69714;SDS011;56981;53.532;49.398;2023-11-19T07:35:07;10.30;;;2.55;;
69714;SDS011;56981;53.532;49.398;2023-11-19T07:37:33;6.50;;;2.60;;
69714;SDS011;56981;53.532;49.398;2023-11-19T07:39:59;34.00;;;5.30;;
69714;SDS011;56981;53.532;49.398;2023-11-19T07:42:25;2.60;;;1.95;;
69714;SDS011;56981;53.532;49.398;2023-11-19T07:44:51;4.32;;;2.80;;
69714;SDS011;56981;53.532;49.398;2023-11-19T07:47:18;5.60;;;2.70;;
69714;SDS011;56981;53.532;49.398;2023-11-19T07:49:44;3.22;;;2.38;;
69714;SDS011;56981;53.532;49.398;2023-11-19T07:52:10;6.75;;;2.90;;
69714;SDS011;56981;53.532;49.398;2023-11-19T07:54:37;7.00;;;2.92;;
69714;SDS011;56981;53.532;49.398;2023-11-19T07:57:03;4.93;;;2.53;;
69714;SDS011;56981;53.532;49.398;2023-11-19T07:59:30;10.52;;;3.00;;
69714;SDS011;56981;53.532;49.398;2023-11-19T08:01:56;3.65;;;2.30;;
69714;SDS011;56981;53.532;49.398;2023-11-19T08:04:23;7.70;;;2.75;;
69714;SDS011;56981;53.532;49.398;2023-11-19T08:06:49;4.13;;;2.58;;
69714;SDS011;56981;53.532;49.398;2023-11-19T08:09:16;3.42;;;2.47;;
69714;SDS011;56981;53.532;49.398;2023-11-19T08:11:42;4.30;;;2.05;;
69714;SDS011;56981;53.532;49.398;2023-11-19T08:14:11;17.83;;;4.30;;
69714;SDS011;56981;53.532;49.398;2023-11-19T08:16:39;3.33;;;2.50;;
69714;SDS011;56981;53.532;49.398;2023-11-19T08:19:05;2.38;;;1.73;;
69714;SDS011;56981;53.532;49.398;2023-11-19T08:21:31;4.10;;;2.55;;
69714;SDS011;56981;53.532;49.398;2023-11-19T08:23:59;2.67;;;2.08;;
69714;SDS011;56981;53.532;49.398;2023-11-19T08:26:26;4.43;;;2.20;;
69714;SDS011;56981;53.532;49.398;2023-11-19T08:28:52;9.35;;;2.65;;
69714;SDS011;56981;53.532;49.398;2023-11-19T08:31:18;3.42;;;2.38;;
69714;SDS011;56981;53.532;49.398;2023-11-19T08:33:44;5.10;;;2.92;;
69714;SDS011;56981;53.532;49.398;2023-11-19T08:36:17;5.22;;;2.97;;
69714;SDS011;56981;53.532;49.398;2023-11-19T08:38:43;3.15;;;2.13;;
69714;SDS011;56981;53.532;49.398;2023-11-19T08:41:09;5.43;;;2.22;;
69714;SDS011;56981;53.532;49.398;2023-11-19T08:43:35;6.13;;;2.47;;
69714;SDS011;56981;53.532;49.398;2023-11-19T08:46:02;7.13;;;2.60;;
69714;SDS011;56981;53.532;49.398;2023-11-19T08:48:29;7.03;;;2.90;;
69714;SDS011;56981;53.532;49.398;2023-11-19T08:50:56;6.85;;;3.97;;
69714;SDS011;56981;53.532;49.398;2023-11-19T08:53:22;8.13;;;2.92;;
69714;SDS011;56981;53.532;49.398;2023-11-19T08:55:48;7.63;;;2.67;;
69714;SDS011;56981;53.532;49.398;2023-11-19T08:58:15;3.47;;;2.75;;
69714;SDS011;56981;53.532;49.398;2023-11-19T09:00:41;5.40;;;2.50;;
69714;SDS011;56981;53.532;49.398;2023-11-19T09:03:07;8.15;;;2.92;;
69714;SDS011;56981;53.532;49.398;2023-11-19T09:05:35;5.65;;;2.70;;
69714;SDS011;56981;53.532;49.398;2023-11-19T09:08:01;5.95;;;2.70;;
69714;SDS011;56981;53.532;49.398;2023-11-19T09:10:28;2.45;;;1.85;;
69714;SDS011;56981;53.532;49.398;2023-11-19T09:12:56;5.38;;;1.70;;
69714;SDS011;56981;53.532;49.398;2023-11-19T09:15:26;4.22;;;2.38;;
69714;SDS011;56981;53.532;49.398;2023-11-19T09:17:53;9.35;;;2.28;;
69714;SDS011;56981;53.532;49.398;2023-11-19T09:20:19;3.97;;;2.70;;
69714;SDS011;56981;53.532;49.398;2023-11-19T09:22:45;6.55;;;2.50;;
69714;SDS011;56981;53.532;49.398;2023-11-19T09:25:11;16.90;;;3.80;;
69714;SDS011;56981;53.532;49.398;2023-11-19T09:27:42;9.73;;;2.58;;
69714;SDS011;56981;53.532;49.398;2023-11-19T09:30:09;4.20;;;2.47;;
69714;SDS011;56981;53.532;49.398;2023-11-19T09:32:36;3.08;;;2.00;;
69714;SDS011;56981;53.532;49.398;2023-11-19T09:35:03;3.08;;;1.90;;
69714;SDS011;56981;53.532;49.398;2023-11-19T09:37:30;2.97;;;1.60;;
69714;SDS011;56981;53.532;49.398;2023-11-19T09:39:56;6.47;;;2.80;;
69714;SDS011;56981;53.532;49.398;2023-11-19T09:42:23;1.48;;;1.38;;
69714;SDS011;56981;53.532;49.398;2023-11-19T09:44:49;4.13;;;2.58;;
69714;SDS011;56981;53.532;49.398;2023-11-19T09:47:16;2.53;;;1.88;;
69714;SDS011;56981;53.532;49.398;2023-11-19T09:49:44;5.72;;;3.05;;
69714;SDS011;56981;53.532;49.398;2023-11-19T09:52:11;3.97;;;2.63;;
69714;SDS011;56981;53.532;49.398;2023-11-19T09:54:37;15.80;;;3.65;;
69714;SDS011;56981;53.532;49.398;2023-11-19T09:57:03;7.97;;;2.58;;
69714;SDS011;56981;53.532;49.398;2023-11-19T09:59:33;5.28;;;3.03;;
69714;SDS011;56981;53.532;49.398;2023-11-19T10:01:59;4.10;;;2.97;;
69714;SDS011;56981;53.532;49.398;2023-11-19T10:04:25;4.57;;;2.65;;
69714;SDS011;56981;53.532;49.398;2023-11-19T10:06:56;8.43;;;3.20;;
69714;SDS011;56981;53.532;49.398;2023-11-19T10:09:22;8.13;;;3.15;;
69714;SDS011;56981;53.532;49.398;2023-11-19T10:11:49;8.52;;;3.08;;
69714;SDS011;56981;53.532;49.398;2023-11-19T10:14:15;11.10;;;3.45;;
69714;SDS011;56981;53.532;49.398;2023-11-19T10:16:44;6.65;;;3.03;;
69714;SDS011;56981;53.532;49.398;2023-11-19T10:19:12;2.55;;;1.23;;
69714;SDS011;56981;53.532;49.398;2023-11-19T10:21:47;7.40;;;3.55;;
69714;SDS011;56981;53.532;49.398;2023-11-19T10:24:13;5.47;;;3.38;;
69714;SDS011;56981;53.532;49.398;2023-11-19T10:26:40;7.20;;;3.88;;
69714;SDS011;56981;53.532;49.398;2023-11-19T10:29:07;5.38;;;2.97;;
69714;SDS011;56981;53.532;49.398;2023-11-19T10:31:33;6.47;;;4.03;;
69714;SDS011;56981;53.532;49.398;2023-11-19T10:33:59;6.47;;;4.30;;
69714;SDS011;56981;53.532;49.398;2023-11-19T10:36:43;8.70;;;3.92;;
69714;SDS011;56981;53.532;49.398;2023-11-19T10:39:10;8.50;;;3.58;;
69714;SDS011;56981;53.532;49.398;2023-11-19T10:41:36;13.88;;;3.97;;
69714;SDS011;56981;53.532;49.398;2023-11-19T10:44:02;10.90;;;4.15;;
69714;SDS011;56981;53.532;49.398;2023-11-19T10:49:06;12.77;;;4.60;;
69714;SDS011;56981;53.532;49.398;2023-11-19T10:51:33;6.05;;;4.65;;
69714;SDS011;56981;53.532;49.398;2023-11-19T10:54:03;7.13;;;3.75;;
69714;SDS011;56981;53.532;49.398;2023-11-19T10:56:33;6.57;;;3.25;;
69714;SDS011;56981;53.532;49.398;2023-11-19T10:59:00;13.95;;;4.72;;
69714;SDS011;56981;53.532;49.398;2023-11-19T11:01:27;6.40;;;2.50;;
69714;SDS011;56981;53.532;49.398;2023-11-19T11:04:00;14.20;;;4.53;;
69714;SDS011;56981;53.532;49.398;2023-11-19T11:06:28;7.75;;;4.10;;
69714;SDS011;56981;53.532;49.398;2023-11-19T11:08:55;10.25;;;5.35;;
69714;SDS011;56981;53.532;49.398;2023-11-19T11:11:23;16.05;;;5.32;;
69714;SDS011;56981;53.532;49.398;2023-11-19T11:13:50;10.57;;;4.13;;
69714;SDS011;56981;53.532;49.398;2023-11-19T11:16:19;19.50;;;5.43;;
69714;SDS011;56981;53.532;49.398;2023-11-19T11:21:19;7.05;;;4.05;;
69714;SDS011;56981;53.532;49.398;2023-11-19T11:29:26;15.82;;;5.15;;
69714;SDS011;56981;53.532;49.398;2023-11-19T11:40:15;11.50;;;3.97;;
69714;SDS011;56981;53.532;49.398;2023-11-19T11:42:43;9.48;;;4.03;;
69714;SDS011;56981;53.532;49.398;2023-11-19T11:45:13;6.22;;;2.85;;
69714;SDS011;56981;53.532;49.398;2023-11-19T11:50:13;6.63;;;3.60;;
69714;SDS011;56981;53.532;49.398;2023-11-19T11:55:34;18.58;;;4.97;;
69714;SDS011;56981;53.532;49.398;2023-11-19T11:58:05;17.27;;;5.68;;
69714;SDS011;56981;53.532;49.398;2023-11-19T12:00:40;11.05;;;4.97;;
69714;SDS011;56981;53.532;49.398;2023-11-19T12:03:10;11.15;;;4.75;;
69714;SDS011;56981;53.532;49.398;2023-11-19T12:05:43;8.23;;;4.70;;
69714;SDS011;56981;53.532;49.398;2023-11-19T12:08:13;14.40;;;5.32;;
69714;SDS011;56981;53.532;49.398;2023-11-19T12:10:45;12.85;;;4.72;;
69714;SDS011;56981;53.532;49.398;2023-11-19T12:13:15;14.02;;;4.65;;
69714;SDS011;56981;53.532;49.398;2023-11-19T12:18:23;8.32;;;3.67;;
69714;SDS011;56981;53.532;49.398;2023-11-19T12:20:53;6.30;;;2.78;;
69714;SDS011;56981;53.532;49.398;2023-11-19T12:23:22;15.55;;;5.20;;
69714;SDS011;56981;53.532;49.398;2023-11-19T12:25:49;8.60;;;4.65;;
69714;SDS011;56981;53.532;49.398;2023-11-19T12:28:15;7.60;;;3.67;;
69714;SDS011;56981;53.532;49.398;2023-11-19T12:30:45;14.75;;;4.75;;
69714;SDS011;56981;53.532;49.398;2023-11-19T12:33:14;7.85;;;3.25;;
69714;SDS011;56981;53.532;49.398;2023-11-19T12:35:44;9.98;;;3.83;;
69714;SDS011;56981;53.532;49.398;2023-11-19T12:38:22;11.43;;;4.22;;
69714;SDS011;56981;53.532;49.398;2023-11-19T12:41:05;6.28;;;3.72;;
69714;SDS011;56981;53.532;49.398;2023-11-19T12:43:32;13.20;;;4.40;;
69714;SDS011;56981;53.532;49.398;2023-11-19T12:46:21;8.98;;;3.75;;
69714;SDS011;56981;53.532;49.398;2023-11-19T12:48:49;14.05;;;3.90;;
69714;SDS011;56981;53.532;49.398;2023-11-19T12:51:15;13.07;;;3.78;;
69714;SDS011;56981;53.532;49.398;2023-11-19T12:53:49;24.00;;;5.57;;
69714;SDS011;56981;53.532;49.398;2023-11-19T12:56:18;7.30;;;2.88;;
69714;SDS011;56981;53.532;49.398;2023-11-19T12:58:44;10.48;;;4.20;;
69714;SDS011;56981;53.532;49.398;2023-11-19T13:01:15;6.40;;;3.67;;
69714;SDS011;56981;53.532;49.398;2023-11-19T13:03:45;7.55;;;4.10;;
69714;SDS011;56981;53.532;49.398;2023-11-19T13:06:14;5.07;;;3.33;;
69714;SDS011;56981;53.532;49.398;2023-11-19T13:08:47;8.52;;;3.80;;
69714;SDS011;56981;53.532;49.398;2023-11-19T13:11:34;5.40;;;3.58;;
69714;SDS011;56981;53.532;49.398;2023-11-19T13:14:06;10.32;;;3.75;;
69714;SDS011;56981;53.532;49.398;2023-11-19T13:16:37;15.05;;;4.72;;
69714;SDS011;56981;53.532;49.398;2023-11-19T13:19:07;6.55;;;3.92;;
69714;SDS011;56981;53.532;49.398;2023-11-19T13:21:37;7.47;;;3.65;;
69714;SDS011;56981;53.532;49.398;2023-11-19T13:24:05;3.95;;;3.03;;
69714;SDS011;56981;53.532;49.398;2023-11-19T13:26:34;8.07;;;3.70;;
69714;SDS011;56981;53.532;49.398;2023-11-19T13:29:00;11.77;;;3.63;;
69714;SDS011;56981;53.532;49.398;2023-11-19T13:31:27;13.13;;;4.05;;
69714;SDS011;56981;53.532;49.398;2023-11-19T13:33:53;21.80;;;4.78;;
69714;SDS011;56981;53.532;49.398;2023-11-19T13:36:24;10.60;;;4.05;;
69714;SDS011;56981;53.532;49.398;2023-11-19T13:38:51;10.63;;;4.28;;
69714;SDS011;56981;53.532;49.398;2023-11-19T13:41:24;15.13;;;3.90;;
69714;SDS011;56981;53.532;49.398;2023-11-19T13:43:51;8.82;;;4.07;;
69714;SDS011;56981;53.532;49.398;2023-11-19T13:46:17;12.15;;;4.63;;
69714;SDS011;56981;53.532;49.398;2023-11-19T13:48:43;17.98;;;4.32;;
69714;SDS011;56981;53.532;49.398;2023-11-19T13:51:10;14.85;;;4.35;;
69714;SDS011;56981;53.532;49.398;2023-11-19T13:53:36;16.05;;;4.50;;
69714;SDS011;56981;53.532;49.398;2023-11-19T13:56:03;12.73;;;5.07;;
69714;SDS011;56981;53.532;49.398;2023-11-19T13:58:29;12.38;;;4.72;;
69714;SDS011;56981;53.532;49.398;2023-11-19T14:00:55;7.70;;;3.60;;
69714;SDS011;56981;53.532;49.398;2023-11-19T14:03:21;16.38;;;5.18;;
69714;SDS011;56981;53.532;49.398;2023-11-19T14:05:47;10.90;;;3.95;;
69714;SDS011;56981;53.532;49.398;2023-11-19T14:08:15;9.15;;;4.18;;
69714;SDS011;56981;53.532;49.398;2023-11-19T14:10:40;2.90;;;2.00;;
69714;SDS011;56981;53.532;49.398;2023-11-19T14:13:07;16.42;;;5.03;;
69714;SDS011;56981;53.532;49.398;2023-11-19T14:15:33;9.90;;;3.28;;
69714;SDS011;56981;53.532;49.398;2023-11-19T14:17:59;15.13;;;4.68;;
69714;SDS011;56981;53.532;49.398;2023-11-19T14:20:25;12.75;;;3.85;;
69714;SDS011;56981;53.532;49.398;2023-11-19T14:22:52;9.77;;;4.22;;
69714;SDS011;56981;53.532;49.398;2023-11-19T14:25:18;14.25;;;4.50;;
69714;SDS011;56981;53.532;49.398;2023-11-19T14:27:44;10.73;;;3.78;;
69714;SDS011;56981;53.532;49.398;2023-11-19T14:30:14;16.33;;;4.30;;
69714;SDS011;56981;53.532;49.398;2023-11-19T14:32:41;11.38;;;3.75;;
69714;SDS011;56981;53.532;49.398;2023-11-19T14:35:13;12.35;;;4.57;;
69714;SDS011;56981;53.532;49.398;2023-11-19T14:37:42;9.52;;;4.03;;
69714;SDS011;56981;53.532;49.398;2023-11-19T14:40:08;12.35;;;3.65;;
69714;SDS011;56981;53.532;49.398;2023-11-19T14:42:36;13.20;;;3.72;;
69714;SDS011;56981;53.532;49.398;2023-11-19T14:45:04;11.40;;;5.38;;
69714;SDS011;56981;53.532;49.398;2023-11-19T14:47:32;10.38;;;3.97;;
69714;SDS011;56981;53.532;49.398;2023-11-19T14:50:01;23.23;;;5.88;;
69714;SDS011;56981;53.532;49.398;2023-11-19T14:52:27;18.33;;;5.78;;
69714;SDS011;56981;53.532;49.398;2023-11-19T14:54:53;9.27;;;4.30;;
69714;SDS011;56981;53.532;49.398;2023-11-19T14:57:21;14.48;;;5.28;;
69714;SDS011;56981;53.532;49.398;2023-11-19T14:59:47;14.43;;;4.78;;
69714;SDS011;56981;53.532;49.398;2023-11-19T15:02:13;11.00;;;5.53;;
69714;SDS011;56981;53.532;49.398;2023-11-19T15:04:44;14.90;;;6.00;;